Time;durP1;ratioP1;P1;durP2;ratioP2;P2;SDS_P1;SDS_P2;PMS_P1;PMS_P2;Temp;Humidity;BMP_temperature;BMP_pressure;BME280_temperature;BME280_humidity;BME280_pressure;Samples;Min_cycle;Max_cycle;Signal;HPM_P1;HPM_P2
2021/01/16 00:02:19;;;;;;;5.00;3.40;;;;;;;-0.35;69.27;102190.09;5070566;28;20219;-70
2021/01/16 00:04:44;;;;;;;4.10;3.03;;;;;;;-0.28;70.29;102184.91;5054061;28;20206;-70
2021/01/16 00:07:10;;;;;;;4.07;2.80;;;;;;;-0.35;69.60;102191.91;5070841;28;20284;-71
2021/01/16 00:09:37;;;;;;;3.27;2.43;;;;;;;-0.07;69.47;102183.44;5092257;28;20187;-70
2021/01/16 00:12:06;;;;;;;3.97;2.67;;;;;;;0.10;68.51;102182.41;5053788;28;20211;-73
2021/01/16 00:14:34;;;;;;;3.43;2.60;;;;;;;-0.07;69.44;102183.44;5070400;28;20259;-70
2021/01/16 00:16:59;;;;;;;4.33;2.97;;;;;;;0.02;68.74;102179.75;5069685;28;20622;-70
2021/01/16 00:19:25;;;;;;;3.93;3.00;;;;;;;-0.03;68.41;102167.91;5054047;28;20190;-70
2021/01/16 00:21:50;;;;;;;3.00;2.60;;;;;;;-0.15;69.09;102167.38;5069564;28;20219;-70
2021/01/16 00:24:18;;;;;;;3.80;2.63;;;;;;;-0.17;69.18;102169.41;5070074;28;20298;-70
2021/01/16 00:26:44;;;;;;;4.13;2.70;;;;;;;-0.12;69.54;102151.06;5053310;28;20230;-70
2021/01/16 00:29:10;;;;;;;4.03;2.63;;;;;;;-0.08;68.66;102147.03;5037246;28;20182;-70
2021/01/16 00:31:36;;;;;;;3.43;2.90;;;;;;;-0.16;69.25;102151.56;5071076;28;20223;-70
2021/01/16 00:34:03;;;;;;;2.77;2.53;;;;;;;-0.19;70.15;102152.72;5053508;28;20554;-70
2021/01/16 00:36:29;;;;;;;3.10;2.80;;;;;;;-0.29;69.66;102143.22;5070529;28;20670;-70
2021/01/16 00:38:57;;;;;;;4.03;2.53;;;;;;;-0.16;69.14;102154.22;5102671;27;20249;-70
2021/01/16 00:41:22;;;;;;;3.73;3.00;;;;;;;-0.02;68.28;102140.19;5053595;28;20782;-71
2021/01/16 00:43:48;;;;;;;4.13;2.60;;;;;;;-0.29;68.83;102153.91;5071495;28;20186;-70
2021/01/16 00:46:14;;;;;;;4.93;3.67;;;;;;;-0.27;69.79;102149.22;5069873;28;20230;-70
2021/01/16 00:48:39;;;;;;;4.37;3.10;;;;;;;-0.15;69.61;102155.88;5053991;28;20237;-71
2021/01/16 00:51:05;;;;;;;4.87;2.60;;;;;;;-0.10;69.21;102159.72;5053725;28;20352;-70
2021/01/16 00:53:40;;;;;;;4.53;2.90;;;;;;;-0.23;69.10;102159.38;5055630;28;20198;-70
2021/01/16 00:56:10;;;;;;;3.07;2.77;;;;;;;-0.31;69.82;102158.56;5053372;28;20218;-71
2021/01/16 00:58:46;;;;;;;3.60;3.03;;;;;;;-0.03;69.42;102158.06;5070507;28;20190;-71
2021/01/16 01:01:34;;;;;;;3.93;2.77;;;;;;;-0.07;68.71;102159.41;5083726;28;20222;-71
2021/01/16 01:04:02;;;;;;;4.70;2.83;;;;;;;-0.27;68.93;102163.41;5037295;28;20189;-70
2021/01/16 01:06:28;;;;;;;3.60;2.97;;;;;;;-0.21;68.35;102156.56;5052812;28;20222;-70
2021/01/16 01:08:55;;;;;;;4.07;2.70;;;;;;;-0.22;69.30;102153.06;5080681;28;20201;-71
2021/01/16 01:11:21;;;;;;;4.30;2.97;;;;;;;-0.21;69.00;102152.03;5052148;28;20318;-70
2021/01/16 01:13:52;;;;;;;3.47;2.83;;;;;;;-0.19;68.05;102158.06;5053308;28;20170;-71
2021/01/16 01:16:20;;;;;;;4.70;3.03;;;;;;;-0.41;68.70;102165.06;5068839;28;20222;-70
2021/01/16 01:18:46;;;;;;;5.07;3.37;;;;;;;-0.54;69.32;102164.69;5053715;28;20229;-71
2021/01/16 01:21:15;;;;;;;3.73;2.73;;;;;;;-0.29;69.90;102154.72;5069909;28;20349;-71
2021/01/16 01:23:43;;;;;;;3.97;3.27;;;;;;;-0.04;69.59;102142.19;5087177;28;20183;-71
2021/01/16 01:26:09;;;;;;;3.83;3.37;;;;;;;-0.28;69.45;102155.56;5052566;28;20291;-70
2021/01/16 01:28:34;;;;;;;3.63;3.10;;;;;;;-0.32;68.39;102140.88;5070093;28;20185;-71
2021/01/16 01:31:02;;;;;;;4.33;3.60;;;;;;;-0.23;68.70;102138.03;5092523;28;20225;-71
2021/01/16 01:33:28;;;;;;;3.97;3.40;;;;;;;-0.60;68.03;102149.38;5090426;28;20166;-70
2021/01/16 01:35:53;;;;;;;5.37;3.43;;;;;;;-0.74;69.02;102147.31;5055917;28;20233;-70
2021/01/16 01:38:21;;;;;;;5.03;3.10;;;;;;;-0.62;69.39;102152.19;5077233;28;20193;-70
2021/01/16 01:40:49;;;;;;;4.23;2.83;;;;;;;-0.46;68.05;102149.53;5076683;28;20213;-71
2021/01/16 01:43:17;;;;;;;3.80;3.27;;;;;;;-0.58;69.14;102152.69;5070509;28;20225;-70
2021/01/16 01:45:43;;;;;;;5.27;3.50;;;;;;;-0.48;68.63;102153.38;5053408;28;20214;-70
2021/01/16 01:48:10;;;;;;;3.63;3.20;;;;;;;-0.35;68.63;102133.19;5069659;28;20197;-71
2021/01/16 01:50:35;;;;;;;3.37;2.77;;;;;;;-0.26;66.95;102141.03;5051401;28;20229;-70
2021/01/16 01:53:01;;;;;;;4.83;3.50;;;;;;;-0.55;68.34;102144.34;5053695;28;20213;-70
2021/01/16 01:55:29;;;;;;;5.40;3.33;;;;;;;-0.40;68.04;102135.53;5068422;28;20226;-70
2021/01/16 01:57:56;;;;;;;4.30;3.67;;;;;;;-0.35;67.22;102147.38;5037284;28;20319;-70
2021/01/16 02:00:22;;;;;;;3.47;3.13;;;;;;;-0.41;68.00;102154.38;5036444;28;20193;-71
2021/01/16 02:02:50;;;;;;;4.27;3.67;;;;;;;-0.44;68.29;102142.22;5036739;28;20656;-71
2021/01/16 02:05:16;;;;;;;3.83;3.40;;;;;;;-0.13;67.79;102136.03;5085356;28;20260;-71
2021/01/16 02:07:42;;;;;;;5.70;3.53;;;;;;;-0.16;68.50;102136.38;5086871;28;20628;-71
2021/01/16 02:10:24;;;;;;;4.40;3.53;;;;;;;-0.30;68.85;102141.53;5063343;28;20187;-70
2021/01/16 02:12:52;;;;;;;4.17;3.30;;;;;;;-0.36;68.34;102135.03;5061953;28;20185;-70
2021/01/16 02:15:47;;;;;;;4.17;3.10;;;;;;;-0.42;67.88;102144.69;5075926;28;20210;-70
2021/01/16 02:18:46;;;;;;;3.87;3.13;;;;;;;-0.47;68.39;102139.03;5045408;28;20221;-71
2021/01/16 02:21:18;;;;;;;3.17;2.87;;;;;;;-0.42;67.55;102144.69;5046644;28;20226;-71
2021/01/16 02:23:51;;;;;;;3.80;3.27;;;;;;;-0.35;68.71;102154.53;5077092;28;20197;-70
2021/01/16 02:26:17;;;;;;;3.27;2.80;;;;;;;-0.23;67.45;102142.56;5093174;28;20275;-70
2021/01/16 02:28:58;;;;;;;5.00;3.10;;;;;;;-0.19;68.23;102149.22;5094215;28;20181;-70
2021/01/16 02:31:39;;;;;;;3.30;3.00;;;;;;;-0.39;68.68;102157.72;5075581;28;20218;-71
2021/01/16 02:34:05;;;;;;;3.73;2.83;;;;;;;-0.46;68.79;102146.03;5109727;28;20186;-70
2021/01/16 02:36:34;;;;;;;3.00;2.70;;;;;;;-0.19;67.20;102133.19;5041774;28;20222;-71
2021/01/16 02:39:18;;;;;;;3.83;3.10;;;;;;;-0.45;66.21;102147.72;5116495;27;20217;-70
2021/01/16 02:42:02;;;;;;;3.13;2.83;;;;;;;-0.49;67.55;102146.38;5093399;28;20625;-71
2021/01/16 02:44:34;;;;;;;3.40;2.63;;;;;;;-0.51;67.66;102146.53;5092089;28;20224;-70
2021/01/16 02:47:02;;;;;;;3.53;2.83;;;;;;;-0.60;67.80;102136.84;5093324;28;20675;-70
2021/01/16 02:49:42;;;;;;;3.80;2.63;;;;;;;-0.44;66.43;102133.34;5059232;28;20189;-71
2021/01/16 02:52:08;;;;;;;6.37;2.93;;;;;;;-0.63;68.15;102141.69;5042226;28;20224;-71
2021/01/16 02:54:41;;;;;;;3.83;2.77;;;;;;;-0.51;68.17;102137.69;5059205;28;20206;-71
2021/01/16 02:57:08;;;;;;;3.37;2.80;;;;;;;-0.60;67.72;102138.69;5075124;28;20359;-71
2021/01/16 02:59:38;;;;;;;4.43;3.20;;;;;;;-0.37;67.33;102120.03;5059079;28;20186;-70
2021/01/16 03:02:04;;;;;;;4.43;3.07;;;;;;;-0.26;67.22;102113.50;5074766;28;20276;-71
2021/01/16 03:04:30;;;;;;;7.13;2.93;;;;;;;-0.45;67.33;102121.03;5058390;28;20209;-71
2021/01/16 03:06:56;;;;;;;3.10;2.70;;;;;;;-0.27;66.13;102119.88;5075169;28;20265;-70
2021/01/16 03:09:21;;;;;;;3.80;3.03;;;;;;;-0.61;67.63;102127.16;5100001;28;20643;-70
2021/01/16 03:11:50;;;;;;;2.97;2.63;;;;;;;-0.61;67.81;102131.69;5071465;28;20229;-71
2021/01/16 03:14:15;;;;;;;3.37;2.80;;;;;;;-0.67;68.10;102127.84;5055146;28;20194;-70
2021/01/16 03:17:04;;;;;;;5.17;2.87;;;;;;;-0.85;68.73;102122.81;5055922;28;20218;-71
2021/01/16 03:19:31;;;;;;;3.00;2.53;;;;;;;-0.99;68.22;102120.75;5073672;28;20602;-70
2021/01/16 03:21:56;;;;;;;3.43;3.00;;;;;;;-0.93;68.75;102120.97;5039457;28;20226;-70
2021/01/16 03:24:22;;;;;;;3.17;2.70;;;;;;;-0.93;68.98;102107.63;5040442;28;20232;-71
2021/01/16 03:26:50;;;;;;;5.33;2.93;;;;;;;-0.99;69.21;102112.75;5090212;28;20222;-71
2021/01/16 03:29:18;;;;;;;2.90;2.70;;;;;;;-0.98;69.68;102115.28;5093988;28;20667;-70
2021/01/16 03:31:43;;;;;;;3.37;2.90;;;;;;;-1.03;70.19;102114.91;5076337;28;20222;-71
2021/01/16 03:34:11;;;;;;;4.80;3.23;;;;;;;-1.05;70.78;102114.25;5092548;28;20860;-70
2021/01/16 03:36:37;;;;;;;4.03;3.10;;;;;;;-0.84;70.00;102113.78;5057860;28;20222;-70
2021/01/16 03:39:02;;;;;;;4.40;2.93;;;;;;;-1.04;70.40;102118.59;5084706;28;20205;-70
2021/01/16 03:41:28;;;;;;;3.57;2.97;;;;;;;-0.93;69.10;102115.63;5070667;28;20222;-70
2021/01/16 03:43:56;;;;;;;3.67;2.90;;;;;;;-0.97;70.26;102111.63;5071273;28;20181;-70
2021/01/16 03:46:22;;;;;;;3.63;2.90;;;;;;;-0.86;68.42;102111.31;5069954;28;20235;-70
2021/01/16 03:48:48;;;;;;;3.53;2.60;;;;;;;-0.73;68.48;102115.16;5054578;28;20186;-71
2021/01/16 03:51:16;;;;;;;3.20;2.77;;;;;;;-0.80;68.92;102112.50;5087068;28;20271;-70
2021/01/16 03:53:42;;;;;;;4.33;3.30;;;;;;;-0.78;68.11;102113.16;5071315;28;20175;-70
2021/01/16 03:56:09;;;;;;;4.60;3.60;;;;;;;-0.82;68.91;102110.00;5053176;28;20708;-70
2021/01/16 03:58:34;;;;;;;3.53;2.70;;;;;;;-0.85;68.39;102112.97;5054555;28;20970;-70
2021/01/16 04:01:02;;;;;;;3.83;2.93;;;;;;;-0.72;69.24;102108.00;5044721;28;20399;-71
2021/01/16 04:03:28;;;;;;;4.97;3.10;;;;;;;-0.66;68.72;102102.00;5054307;28;20198;-70
2021/01/16 04:05:56;;;;;;;4.60;3.10;;;;;;;-0.68;68.52;102098.66;5036691;28;20735;-70
2021/01/16 04:08:21;;;;;;;3.27;2.97;;;;;;;-0.68;68.24;102109.31;5056826;28;20601;-70
2021/01/16 04:10:47;;;;;;;3.80;3.07;;;;;;;-0.53;67.54;102092.53;5073769;28;20302;-71
2021/01/16 04:13:13;;;;;;;5.70;3.00;;;;;;;-0.91;68.99;102113.63;5054376;28;20178;-70
2021/01/16 04:15:39;;;;;;;6.90;3.43;;;;;;;-0.64;68.69;102089.31;5069752;28;20222;-70
2021/01/16 04:18:04;;;;;;;3.73;3.23;;;;;;;-0.64;68.42;102094.66;5054329;28;20172;-70
2021/01/16 04:20:32;;;;;;;3.57;2.87;;;;;;;-0.72;68.78;102103.47;5053756;28;20237;-70
2021/01/16 04:22:58;;;;;;;5.40;3.17;;;;;;;-0.55;68.63;102093.66;5055370;28;20187;-70
2021/01/16 04:25:23;;;;;;;3.07;2.77;;;;;;;-0.39;68.45;102093.69;5054281;28;20183;-70
2021/01/16 04:27:49;;;;;;;3.83;3.20;;;;;;;-0.37;68.20;102088.03;5037277;28;20651;-70
2021/01/16 04:30:15;;;;;;;6.17;3.40;;;;;;;-0.46;68.22;102095.34;5037233;28;20184;-70
2021/01/16 04:32:40;;;;;;;4.00;3.40;;;;;;;-0.43;68.46;102087.84;5021725;28;20198;-70
2021/01/16 04:35:07;;;;;;;3.93;3.37;;;;;;;-0.62;68.50;102088.19;5053409;28;20204;-71
2021/01/16 04:37:32;;;;;;;4.50;3.10;;;;;;;-0.63;68.23;102086.50;5051592;28;20226;-70
2021/01/16 04:40:00;;;;;;;4.60;3.50;;;;;;;-0.55;67.92;102088.34;5074414;28;20690;-71
2021/01/16 04:42:26;;;;;;;4.43;3.23;;;;;;;-0.54;67.91;102087.34;5070311;28;20218;-70
2021/01/16 04:44:56;;;;;;;4.07;3.50;;;;;;;-0.58;68.28;102084.19;5020383;28;20611;-71
2021/01/16 04:47:30;;;;;;;5.30;3.57;;;;;;;-0.59;69.09;102089.66;5037746;28;20715;-70
2021/01/16 04:49:59;;;;;;;6.27;4.43;;;;;;;-0.56;69.79;102087.50;5054572;28;20193;-70
2021/01/16 04:52:27;;;;;;;5.87;3.90;;;;;;;-0.48;69.35;102084.00;5053014;28;20263;-70
2021/01/16 04:54:54;;;;;;;4.47;3.67;;;;;;;-0.66;69.93;102086.00;5037296;28;20748;-70
2021/01/16 04:57:20;;;;;;;5.50;3.67;;;;;;;-0.50;69.43;102078.81;5069687;28;20227;-71
2021/01/16 04:59:48;;;;;;;5.63;3.23;;;;;;;-0.66;69.43;102081.50;5053661;28;20199;-71
2021/01/16 05:02:16;;;;;;;6.10;3.83;;;;;;;-0.90;70.40;102087.78;5035957;28;20221;-71
2021/01/16 05:04:44;;;;;;;5.10;3.77;;;;;;;-0.55;70.34;102077.66;5069838;28;20670;-70
2021/01/16 05:07:10;;;;;;;3.67;3.27;;;;;;;-0.70;70.29;102084.66;5036408;28;20233;-70
2021/01/16 05:09:40;;;;;;;5.23;4.07;;;;;;;-0.61;70.26;102073.81;5036948;28;20560;-71
2021/01/16 05:12:05;;;;;;;4.63;3.63;;;;;;;-0.72;70.14;102078.66;5052608;28;20222;-70
2021/01/16 05:14:43;;;;;;;4.70;3.60;;;;;;;-0.69;70.25;102075.66;5052968;28;20206;-70
2021/01/16 05:17:08;;;;;;;5.47;3.53;;;;;;;-0.55;69.88;102069.66;5037483;28;20299;-70
2021/01/16 05:19:34;;;;;;;4.93;3.90;;;;;;;-0.65;69.83;102074.34;5089706;28;20247;-70
2021/01/16 05:22:00;;;;;;;4.53;3.73;;;;;;;-0.98;71.12;102075.28;5056000;28;20251;-70
2021/01/16 05:24:28;;;;;;;4.43;3.67;;;;;;;-0.75;71.64;102061.16;5062083;28;20827;-70
2021/01/16 05:26:54;;;;;;;4.60;3.70;;;;;;;-0.71;70.85;102059.00;5093158;28;20228;-70
2021/01/16 05:29:25;;;;;;;5.83;4.23;;;;;;;-0.75;70.86;102052.34;5111909;28;20257;-71
2021/01/16 05:31:52;;;;;;;4.77;4.13;;;;;;;-0.68;71.02;102050.66;5076047;28;20217;-70
2021/01/16 05:34:17;;;;;;;5.70;4.90;;;;;;;-0.64;70.51;102058.16;5075568;28;20597;-70
2021/01/16 05:36:46;;;;;;;5.07;4.00;;;;;;;-0.68;70.88;102046.19;5109825;28;20216;-70
2021/01/16 05:39:12;;;;;;;4.83;4.10;;;;;;;-0.79;71.40;102042.97;5076402;28;20216;-70
2021/01/16 05:41:41;;;;;;;5.30;4.17;;;;;;;-0.68;70.97;102034.66;5090311;28;20218;-70
2021/01/16 05:44:08;;;;;;;4.63;3.90;;;;;;;-0.65;70.50;102029.00;5091006;28;20188;-71
2021/01/16 05:46:34;;;;;;;4.77;4.27;;;;;;;-0.66;70.24;102029.97;5059092;28;20715;-70
2021/01/16 05:49:00;;;;;;;4.43;3.90;;;;;;;-0.66;70.87;102032.66;5076912;28;20201;-71
2021/01/16 05:51:28;;;;;;;5.60;4.17;;;;;;;-0.67;71.31;102020.34;5059465;28;20225;-71
2021/01/16 05:53:54;;;;;;;4.43;4.03;;;;;;;-0.57;71.42;102019.16;5093795;28;20177;-70
2021/01/16 05:56:20;;;;;;;5.20;4.30;;;;;;;-0.59;70.76;102017.66;5075639;28;20228;-70
2021/01/16 05:58:45;;;;;;;4.50;3.80;;;;;;;-0.62;72.17;102010.00;5076577;28;20266;-70
2021/01/16 06:01:23;;;;;;;5.80;5.17;;;;;;;-0.68;73.05;102019.50;5059186;28;20222;-70
2021/01/16 06:03:58;;;;;;;6.17;4.87;;;;;;;-0.72;73.29;102006.66;5093692;28;20182;-70
2021/01/16 06:06:23;;;;;;;7.57;5.57;;;;;;;-0.72;73.53;102009.31;5059578;28;20764;-71
2021/01/16 06:08:55;;;;;;;6.60;5.30;;;;;;;-0.57;72.98;102004.97;5086421;28;20183;-71
2021/01/16 06:11:21;;;;;;;5.80;5.00;;;;;;;-0.54;72.97;102004.66;5059804;28;20594;-70
2021/01/16 06:13:48;;;;;;;6.27;4.47;;;;;;;-0.42;72.03;101997.94;5059471;28;20182;-70
2021/01/16 06:16:15;;;;;;;7.07;5.40;;;;;;;-0.57;73.06;101999.66;5075209;28;20245;-70
2021/01/16 06:18:56;;;;;;;7.07;5.43;;;;;;;-0.48;73.14;101991.47;5059696;28;20185;-71
2021/01/16 06:21:31;;;;;;;8.17;6.00;;;;;;;-0.39;72.08;101992.28;5075985;28;20305;-70
2021/01/16 06:23:57;;;;;;;9.57;6.73;;;;;;;-0.53;72.83;101991.16;5093604;28;20580;-70
2021/01/16 06:26:23;;;;;;;8.00;5.23;;;;;;;-0.57;73.48;101994.31;5081427;28;20230;-70
2021/01/16 06:29:00;;;;;;;6.73;5.13;;;;;;;-0.56;72.87;101994.16;5056667;28;20178;-70
2021/01/16 06:31:29;;;;;;;6.03;4.83;;;;;;;-0.52;73.16;101991.97;5051433;28;20221;-71
2021/01/16 06:34:03;;;;;;;6.63;4.60;;;;;;;-0.56;72.71;101991.47;5039556;28;20193;-71
2021/01/16 06:36:30;;;;;;;5.90;4.70;;;;;;;-0.61;73.11;101987.66;5055678;28;20237;-70
2021/01/16 06:38:57;;;;;;;7.13;5.90;;;;;;;-0.71;73.16;101981.66;5079831;28;20881;-70
2021/01/16 06:41:27;;;;;;;7.73;6.30;;;;;;;-0.69;74.72;101990.34;5071636;28;20210;-71
2021/01/16 06:43:55;;;;;;;9.13;6.87;;;;;;;-0.74;75.10;101987.31;5056312;28;20208;-70
2021/01/16 06:46:46;;;;;;;8.43;6.17;;;;;;;-0.78;74.65;101994.00;5068359;28;20234;-70
2021/01/16 06:49:26;;;;;;;8.37;6.30;;;;;;;-0.63;75.71;101985.16;5039332;28;20179;-71
2021/01/16 06:51:53;;;;;;;8.63;6.33;;;;;;;-0.53;75.71;101990.31;5072394;28;20219;-70
2021/01/16 06:54:32;;;;;;;7.13;5.73;;;;;;;-0.49;74.99;101991.66;5063499;28;20533;-70
2021/01/16 06:57:11;;;;;;;6.93;5.83;;;;;;;-0.90;75.61;101995.31;5060467;28;20584;-70
2021/01/16 06:59:38;;;;;;;7.00;5.53;;;;;;;-1.00;76.61;101988.50;5055526;28;20201;-70
2021/01/16 07:02:22;;;;;;;6.53;5.70;;;;;;;-1.06;78.45;101986.50;5054581;28;20329;-70
2021/01/16 07:04:52;;;;;;;7.53;6.03;;;;;;;-1.15;78.67;101993.66;5088535;28;20683;-71
2021/01/16 07:07:24;;;;;;;9.03;6.10;;;;;;;-1.40;79.05;101988.44;5054596;28;20238;-70
2021/01/16 07:10:06;;;;;;;10.20;6.93;;;;;;;-1.44;80.33;101986.28;5075754;28;20654;-70
2021/01/16 07:12:32;;;;;;;5.60;4.50;;;;;;;-1.68;81.67;101978.22;5054716;28;20229;-70
2021/01/16 07:14:58;;;;;;;6.00;4.77;;;;;;;-1.74;82.78;101978.00;5054716;28;20206;-70
2021/01/16 07:17:25;;;;;;;6.37;5.10;;;;;;;-1.87;83.21;101973.16;5038211;28;20769;-70
2021/01/16 07:19:50;;;;;;;5.70;4.37;;;;;;;-1.95;84.25;101964.31;5072782;28;20237;-71
2021/01/16 07:22:19;;;;;;;7.20;4.83;;;;;;;-2.01;85.75;101969.44;5071219;28;20767;-69
2021/01/16 07:24:47;;;;;;;6.03;4.93;;;;;;;-2.06;86.82;101964.59;5037837;28;20217;-69
2021/01/16 07:27:15;;;;;;;6.43;4.93;;;;;;;-1.95;87.63;101963.47;5039044;28;20226;-69
2021/01/16 07:29:41;;;;;;;6.03;4.40;;;;;;;-1.89;88.03;101967.19;5054918;28;20174;-72
2021/01/16 07:32:15;;;;;;;6.73;4.60;;;;;;;-1.83;87.36;101966.53;5040113;28;20246;-69
2021/01/16 07:34:47;;;;;;;6.30;4.90;;;;;;;-1.87;87.55;101959.84;5071588;28;20214;-71
2021/01/16 07:37:13;;;;;;;6.57;5.27;;;;;;;-1.68;87.20;101956.91;5067942;28;20219;-70
2021/01/16 07:39:40;;;;;;;8.77;6.73;;;;;;;-1.55;86.43;101954.63;5036303;28;20189;-70
2021/01/16 07:42:10;;;;;;;5.87;4.70;;;;;;;-1.41;85.94;101949.50;5081241;28;20644;-70
2021/01/16 07:44:43;;;;;;;5.80;4.37;;;;;;;-1.43;85.00;101937.31;5082233;28;20209;-70
2021/01/16 07:47:19;;;;;;;6.63;4.77;;;;;;;-1.38;84.44;101946.47;5071434;28;20222;-70
2021/01/16 07:49:52;;;;;;;5.97;4.67;;;;;;;-1.41;84.79;101943.31;5056898;28;20545;-70
2021/01/16 07:52:17;;;;;;;5.67;4.70;;;;;;;-1.17;84.50;101940.66;5055109;28;20226;-70
2021/01/16 07:54:45;;;;;;;6.53;4.57;;;;;;;-1.28;83.89;101936.53;5063056;28;20244;-70
2021/01/16 07:57:14;;;;;;;6.43;4.73;;;;;;;-1.16;83.07;101938.66;5037165;28;20219;-70
2021/01/16 07:59:44;;;;;;;5.40;4.80;;;;;;;-1.08;82.93;101952.00;5062567;28;20418;-70
2021/01/16 08:02:28;;;;;;;8.10;6.33;;;;;;;-0.98;83.53;101935.84;5090284;28;20612;-70
2021/01/16 08:05:12;;;;;;;9.17;6.70;;;;;;;-0.90;81.71;101939.34;5053754;28;20214;-70
2021/01/16 08:08:12;;;;;;;8.90;5.90;;;;;;;-0.88;80.43;101940.03;5053882;28;20311;-70
2021/01/16 08:10:38;;;;;;;8.70;6.50;;;;;;;-0.89;80.35;101941.00;5086825;28;20305;-70
2021/01/16 08:13:09;;;;;;;9.53;6.73;;;;;;;-0.96;80.16;101944.50;5074677;28;20178;-70
2021/01/16 08:15:38;;;;;;;10.70;6.80;;;;;;;-0.91;79.76;101940.34;5090272;28;20225;-70
2021/01/16 08:18:03;;;;;;;10.20;6.47;;;;;;;-0.85;79.10;101941.50;5074821;28;20654;-70
2021/01/16 08:20:34;;;;;;;8.00;5.77;;;;;;;-0.94;79.97;101930.00;5073056;28;20304;-70
2021/01/16 08:23:00;;;;;;;9.67;6.13;;;;;;;-0.98;79.20;101935.84;5041603;28;20276;-70
2021/01/16 08:25:29;;;;;;;14.70;8.33;;;;;;;-0.89;79.80;101940.19;5056962;28;20233;-70
2021/01/16 08:27:58;;;;;;;10.20;6.57;;;;;;;-0.77;78.86;101939.66;5074159;28;20274;-70
2021/01/16 08:30:28;;;;;;;7.70;5.83;;;;;;;-0.81;78.79;101933.00;5075146;28;20214;-70
2021/01/16 08:33:07;;;;;;;9.43;6.37;;;;;;;-0.88;78.69;101925.84;5089229;28;20690;-71
2021/01/16 08:35:39;;;;;;;25.23;17.07;;;;;;;-0.85;79.05;101931.69;5066187;28;20303;-69
2021/01/16 08:38:18;;;;;;;8.17;5.80;;;;;;;-0.85;78.82;101929.00;5072608;28;20186;-69
2021/01/16 08:41:03;;;;;;;7.93;5.00;;;;;;;-0.93;78.79;101925.53;5068364;28;20686;-70
2021/01/16 08:43:37;;;;;;;7.63;5.10;;;;;;;-1.10;79.18;101924.69;5041759;28;20210;-71
2021/01/16 08:46:27;;;;;;;7.03;5.10;;;;;;;-1.02;78.51;101932.69;5083242;28;20230;-70
2021/01/16 08:48:59;;;;;;;8.67;5.27;;;;;;;-1.04;78.44;101924.03;5068096;28;20190;-71
2021/01/16 08:51:34;;;;;;;8.87;6.00;;;;;;;-1.00;78.88;101927.19;5087365;28;20221;-71
2021/01/16 08:54:17;;;;;;;9.33;5.73;;;;;;;-0.91;79.60;101915.53;5071958;28;20250;-71
2021/01/16 08:57:01;;;;;;;7.97;5.47;;;;;;;-0.77;78.46;101915.66;5072643;28;20224;-71
2021/01/16 08:59:28;;;;;;;7.40;5.50;;;;;;;-0.70;77.97;101919.31;5086591;28;20221;-71
2021/01/16 09:02:10;;;;;;;7.40;5.30;;;;;;;-0.61;78.50;101910.31;5050165;28;20221;-78
2021/01/16 09:04:36;;;;;;;6.67;5.20;;;;;;;-0.53;77.58;101920.94;5051037;28;20207;-71
2021/01/16 09:07:20;;;;;;;7.30;5.77;;;;;;;-0.47;75.62;101915.78;5071761;28;20603;-72
2021/01/16 09:10:12;;;;;;;6.40;4.87;;;;;;;-0.55;76.35;101914.94;5069758;28;20194;-71
2021/01/16 09:12:40;;;;;;;7.40;5.33;;;;;;;-0.26;74.83;101916.03;5068625;28;20278;-71
2021/01/16 09:15:34;;;;;;;7.90;5.27;;;;;;;-0.52;74.85;101906.63;5051538;28;20207;-71
2021/01/16 09:18:15;;;;;;;7.00;5.07;;;;;;;-0.48;75.04;101910.59;5055993;28;20246;-72
2021/01/16 09:20:48;;;;;;;9.63;5.93;;;;;;;-0.41;75.05;101908.94;5066147;28;20222;-72
2021/01/16 09:23:20;;;;;;;38.47;18.63;;;;;;;-0.29;75.00;101909.22;5032883;28;20185;-71
2021/01/16 09:25:52;;;;;;;63.13;27.10;;;;;;;-0.27;75.12;101907.19;5060157;28;20234;-72
2021/01/16 09:28:38;;;;;;;85.07;40.33;;;;;;;-0.25;74.95;101913.19;5053158;28;20678;-71
2021/01/16 09:31:24;;;;;;;32.47;19.10;;;;;;;-0.09;74.89;101907.81;5068794;28;20218;-71
2021/01/16 09:33:54;;;;;;;8.77;7.43;;;;;;;-0.07;73.68;101903.13;5069006;28;20198;-72
2021/01/16 09:36:56;;;;;;;8.30;6.50;;;;;;;-0.07;74.03;101900.47;5047784;28;20596;-72
2021/01/16 09:39:32;;;;;;;7.47;5.90;;;;;;;-0.26;73.80;101892.00;5054262;28;20193;-73
2021/01/16 09:42:04;;;;;;;6.63;5.30;;;;;;;-0.22;74.83;101896.84;5056126;28;20223;-72
2021/01/16 09:44:43;;;;;;;6.30;5.40;;;;;;;-0.14;74.22;101895.97;5069774;28;20202;-71
2021/01/16 09:47:39;;;;;;;5.93;5.10;;;;;;;-0.12;73.95;101894.78;5067636;28;20608;-71
2021/01/16 09:50:18;;;;;;;6.73;4.57;;;;;;;0.00;74.69;101898.75;5060740;28;20201;-71
2021/01/16 09:53:12;;;;;;;6.50;5.03;;;;;;;-0.07;73.13;101897.78;5089483;28;20171;-71
2021/01/16 09:55:45;;;;;;;5.03;4.43;;;;;;;0.02;74.17;101891.41;5087138;28;20293;-73
2021/01/16 09:58:30;;;;;;;6.10;4.63;;;;;;;-0.06;72.96;101880.75;5072964;28;20569;-72
2021/01/16 10:01:16;;;;;;;7.20;5.50;;;;;;;0.10;73.42;101878.00;5089322;28;20274;-72
2021/01/16 10:03:45;;;;;;;5.73;4.53;;;;;;;0.38;71.27;101887.19;5072966;28;20192;-70
2021/01/16 10:06:17;;;;;;;4.87;4.10;;;;;;;0.34;71.37;101881.34;5095829;28;20210;-69
2021/01/16 10:08:53;;;;;;;5.17;4.60;;;;;;;0.23;71.55;101878.25;5049716;28;20182;-72
2021/01/16 10:11:41;;;;;;;5.23;4.53;;;;;;;0.42;71.23;101868.78;5055417;28;20613;-71
2021/01/16 10:14:22;;;;;;;5.03;4.10;;;;;;;0.55;69.74;101876.19;5070701;28;20262;-70
2021/01/16 10:16:50;;;;;;;5.67;4.30;;;;;;;0.52;69.93;101872.03;5061384;28;20216;-70
2021/01/16 10:19:17;;;;;;;6.07;4.40;;;;;;;0.71;69.71;101868.06;5049661;28;20175;-69
2021/01/16 10:21:58;;;;;;;6.13;4.30;;;;;;;0.81;67.34;101859.59;5069972;28;20266;-70
2021/01/16 10:24:26;;;;;;;7.47;4.67;;;;;;;0.79;67.55;101860.81;5060255;28;20187;-70
2021/01/16 10:26:52;;;;;;;7.03;5.00;;;;;;;0.77;67.49;101847.63;5049295;28;20654;-71
2021/01/16 10:29:36;;;;;;;4.77;4.17;;;;;;;0.93;66.16;101857.31;5063642;28;20270;-70
2021/01/16 10:32:21;;;;;;;6.20;3.93;;;;;;;0.82;65.27;101853.28;5049799;28;20225;-70
2021/01/16 10:34:49;;;;;;;7.17;4.27;;;;;;;0.75;65.85;101847.97;5063152;28;20641;-71
2021/01/16 10:37:15;;;;;;;5.60;4.47;;;;;;;0.75;67.83;101840.78;5071009;28;20213;-70
2021/01/16 10:39:40;;;;;;;6.60;5.00;;;;;;;1.00;66.29;101835.03;5064958;28;20727;-70
2021/01/16 10:42:16;;;;;;;7.40;4.80;;;;;;;1.00;67.70;101848.41;5069441;28;20260;-70
2021/01/16 10:44:45;;;;;;;4.90;4.07;;;;;;;1.01;65.46;101833.16;5054489;28;20221;-70
2021/01/16 10:47:33;;;;;;;6.50;5.27;;;;;;;0.96;65.46;101840.94;5053998;28;20719;-71
2021/01/16 10:50:09;;;;;;;5.27;4.17;;;;;;;0.90;65.67;101844.34;5071365;28;20305;-70
2021/01/16 10:52:35;;;;;;;5.23;4.60;;;;;;;0.98;65.28;101838.91;5055043;28;20215;-69
2021/01/16 10:55:05;;;;;;;6.60;5.30;;;;;;;1.07;66.85;101816.41;5062823;28;20241;-70
2021/01/16 10:57:49;;;;;;;4.67;3.97;;;;;;;1.26;66.41;101820.22;5054045;28;20784;-71
2021/01/16 11:00:18;;;;;;;5.23;4.20;;;;;;;1.52;65.55;101824.09;5069621;28;20194;-70
2021/01/16 11:02:50;;;;;;;4.67;3.93;;;;;;;1.49;65.32;101818.28;5060303;28;20178;-70
2021/01/16 11:05:15;;;;;;;5.27;3.80;;;;;;;1.83;63.57;101805.09;5083111;28;20201;-70
2021/01/16 11:07:44;;;;;;;4.83;3.90;;;;;;;1.55;64.76;101802.28;5090491;28;20202;-71
2021/01/16 11:10:16;;;;;;;5.10;4.27;;;;;;;1.71;62.82;101795.91;5059561;28;20648;-70
2021/01/16 11:12:45;;;;;;;4.67;3.97;;;;;;;1.72;62.56;101781.47;5086490;28;20186;-69
2021/01/16 11:15:19;;;;;;;4.60;3.97;;;;;;;1.60;63.31;101780.31;5061568;28;20255;-71
2021/01/16 11:17:53;;;;;;;5.20;4.30;;;;;;;1.36;63.93;101791.34;5075132;28;20185;-71
2021/01/16 11:20:28;;;;;;;4.20;3.37;;;;;;;1.57;63.78;101781.50;5071231;28;20191;-69
2021/01/16 11:23:18;;;;;;;5.07;3.97;;;;;;;1.72;64.17;101777.00;5070548;28;20252;-70
2021/01/16 11:25:46;;;;;;;5.40;3.83;;;;;;;1.82;63.62;101774.81;5082656;28;20222;-71
2021/01/16 11:28:18;;;;;;;4.17;3.67;;;;;;;1.75;62.25;101762.38;5091139;28;20209;-71
2021/01/16 11:30:46;;;;;;;4.80;3.80;;;;;;;1.71;63.50;101764.59;5058452;28;20225;-70
2021/01/16 11:33:27;;;;;;;4.60;3.83;;;;;;;1.92;63.02;101757.44;5075066;28;20713;-71
2021/01/16 11:36:02;;;;;;;4.47;4.00;;;;;;;1.85;63.05;101752.19;5090219;28;20295;-71
2021/01/16 11:38:45;;;;;;;5.53;4.90;;;;;;;2.09;63.38;101744.63;5090348;28;20185;-71
2021/01/16 11:41:12;;;;;;;5.00;4.40;;;;;;;2.15;61.90;101736.66;5055361;28;20640;-70
2021/01/16 11:43:41;;;;;;;6.30;4.70;;;;;;;1.62;63.00;101738.13;5051216;28;20198;-71
2021/01/16 11:46:11;;;;;;;5.03;4.40;;;;;;;1.68;63.02;101732.03;5051642;28;20231;-71